Flugplatz Elz (EDFY)

Hier findest Du alle Informationen zum Flugplatz Elz (EDFY).

Informationen für Piloten zum Flugplatz Elz

Hier findest Du alle relevanten Informationen, die Du als Pilot benötigst, um Elz anzufliegen.

Flugplatz: Elz ICAO-Code: EDFY
Frequenz Turm: 123,600 Mhz GAFOR Gebiet: 42
Frequenz Ground: 123,600 Mhz Mogas: ja
Platzrunde: N 1400 ft Landegebühr: 6 €
Platzhöhe: - Sunrise: 04:03 Uhr UTC
Pisten: 08/26 - 750 m x 6 m, ASPH Sunset: 19:03 Uhr UTC

Mitglieder, die in Elz fliegen

Flugwetter am Flugplatz Elz

Die METAR Information stammen aus EDGS (31.64 km entfernt).

METAR Code:
2020/07/31 16:50
EDGS 311650Z 13007KT 100V190 CAVOK 30/10 Q1018

Flugschulen am Flugplatz Elz

Am Flugplatz Elz gibt es leider keine Flugschule.

Benachbarte Flugplätze und Flugschulen

Es gibt 17 weitere Flugplätze in einem Umkreis von 50 km um den Flugplatz Elz.

Jetzt anmelden

Passwort vergessen

Umfrage Archiv

Wären Rettungsgeräte keine Pflicht mehr, würdet Ihr Euer UL trotzdem mit einem ausstatten?

Ja
82.8 %
Nein
17.2 %
Stimmen: 250 | Diskussion
Anzeige: Roland Aircraft
Statistik Alle Mitglieder

Aktuell sind 46 Besucher online, davon 2 Mitglieder und 44 Gäste.


Mitglieder online:
Helmutk  Naters 

Anzeige: VFR Sprechfunk Simulator


Anzeige: Pocket FMS